Decoded Metar for KNUI (WEBSTER NAVAL in MD, USA) (IATA:NUI) | Meteo·Mobile Aviation Weather
aviador You're here:

KNUI Decoded Metar

WEBSTER NAVAL in MD, USA
Report Time2019-02-16 06:53:00
UTC Time2019-02-16 06:57:39
Flight Rules vfr VFR
WindVRB at 04 kt
Visibility9999 m
Phenomena:N/A
Clouds:Few 070 Hf
Overcast 100 Hf
Expected CloudBase > 7,600 ft AGL from Temp-Dew spread
Ceiling10,000 ft
Temp13°C (ISA -2)
Dew Point-6°C (26% RH)
AAT8.8°C
QNH1008 hPa
Density Alt20 ft
Elevation23 ft
Report Wrong Elevation
Raw Report
METAR KNUI 160653Z AUTO VRB04KT 10SM FEW070 OVC100 13/M06 A2978 RMK
AO2 SLP083 T01281056

Extra information for KNUI:More info

Metar Taf Metar & Taf Last 4 Metars F.Rules Stats Wind Profile Meteogram Temp Stats Airport Information Weather charts Add Link Nearby VenuesMetar ALERT Operation Metar Decoded Social comments

AIRNAV info for KNUI